createdAt,value
2019-01-21T00:01:58.957Z,-16.86
2019-01-21T00:13:34.343Z,-17.00
2019-01-21T00:16:45.031Z,-17.05
2019-01-21T00:19:54.790Z,-17.09
2019-01-21T00:25:39.363Z,-17.14
2019-01-21T00:28:48.469Z,-17.12
2019-01-21T00:31:57.568Z,-17.13
2019-01-21T00:41:02.170Z,-17.19
2019-01-21T00:49:58.581Z,-17.28
2019-01-21T00:58:28.501Z,-17.35
2019-01-21T01:00:58.373Z,-17.37
2019-01-21T01:04:07.351Z,-17.39
2019-01-21T01:12:57.223Z,-17.45
2019-01-21T01:16:06.148Z,-17.48
2019-01-21T01:19:15.437Z,-17.47
2019-01-21T01:25:12.933Z,-17.54
2019-01-21T01:31:07.634Z,-17.57
2019-01-21T01:36:52.618Z,-17.61
2019-01-21T01:40:02.321Z,-17.63
2019-01-21T01:42:32.065Z,-17.63
2019-01-21T01:48:16.420Z,-17.69
2019-01-21T01:51:26.260Z,-17.69
2019-01-21T01:53:56.311Z,-17.73
2019-01-21T01:56:26.053Z,-17.74
2019-01-21T01:59:35.743Z,-17.76
2019-01-21T02:02:05.952Z,-17.78
2019-01-21T02:04:35.424Z,-17.82
2019-01-21T02:16:18.724Z,-17.82
2019-01-21T02:18:48.434Z,-17.85
2019-01-21T02:21:58.382Z,-17.86
2019-01-21T02:31:13.467Z,-18.75
2019-01-21T02:34:21.033Z,-17.91
2019-01-21T02:37:29.219Z,-17.95
2019-01-21T02:40:38.358Z,-17.94
2019-01-21T02:43:46.165Z,-17.95
2019-01-21T02:46:53.904Z,-17.96
2019-01-21T02:50:02.092Z,-17.95
2019-01-21T02:53:10.812Z,-17.96
2019-01-21T02:56:18.711Z,-17.99
2019-01-21T02:59:26.237Z,-17.99
2019-01-21T03:02:33.611Z,-17.99
2019-01-21T03:05:42.086Z,-18.00
2019-01-21T03:08:49.802Z,-18.03
2019-01-21T03:11:58.704Z,-18.07
2019-01-21T03:15:06.170Z,-18.10
2019-01-21T03:18:13.540Z,-18.13
2019-01-21T03:21:28.213Z,-18.18
2019-01-21T03:24:35.932Z,-18.19
2019-01-21T03:28:00.954Z,-18.65
2019-01-21T03:31:09.064Z,-18.23
2019-01-21T03:34:18.468Z,-18.25
2019-01-21T03:37:15.966Z,-18.25
2019-01-21T03:40:24.818Z,-18.24
2019-01-21T03:46:36.479Z,-18.31
2019-01-21T03:49:18.674Z,-18.31
2019-01-21T03:52:26.546Z,-18.32
2019-01-21T03:58:25.913Z,-18.31
2019-01-21T04:01:33.323Z,-18.28
2019-01-21T04:04:41.202Z,-18.27
2019-01-21T04:11:10.802Z,-18.32
2019-01-21T04:14:18.896Z,-18.34
2019-01-21T04:17:26.338Z,-18.36
2019-01-21T04:20:34.186Z,-18.39
2019-01-21T04:23:42.685Z,-18.46
2019-01-21T04:26:40.826Z,-18.49
2019-01-21T04:29:24.862Z,-18.52
2019-01-21T04:32:05.559Z,-18.57
2019-01-21T04:35:09.353Z,-18.60
2019-01-21T04:38:13.809Z,-18.66
2019-01-21T04:44:32.649Z,-18.68
2019-01-21T04:47:40.493Z,-18.68
2019-01-21T04:50:48.529Z,-18.66
2019-01-21T04:56:58.823Z,-18.65
2019-01-21T05:00:06.691Z,-18.70
2019-01-21T05:03:14.452Z,-18.72
2019-01-21T05:06:22.144Z,-18.77
2019-01-21T05:09:30.736Z,-18.80
2019-01-21T05:12:38.210Z,-18.85
2019-01-21T05:15:45.586Z,-18.89
2019-01-21T05:18:53.306Z,-18.94
2019-01-21T05:25:20.613Z,-18.97
2019-01-21T05:28:28.853Z,-20.17
2019-01-21T05:34:59.514Z,-19.17
2019-01-21T05:37:57.649Z,-19.00
2019-01-21T05:40:55.778Z,-18.99
2019-01-21T05:44:01.445Z,-19.87
2019-01-21T05:47:06.280Z,-18.95
2019-01-21T05:50:06.811Z,-18.95
2019-01-21T05:53:19.477Z,-18.93
2019-01-21T05:56:27.173Z,-18.93
2019-01-21T05:59:35.097Z,-18.96
2019-01-21T06:02:32.111Z,-18.99
2019-01-21T06:05:39.953Z,-19.00
2019-01-21T06:08:47.761Z,-19.00
2019-01-21T06:11:59.944Z,-18.98
2019-01-21T06:15:07.923Z,-18.94
2019-01-21T06:18:24.314Z,-18.95
2019-01-21T06:24:41.115Z,-19.03
2019-01-21T06:27:51.451Z,-19.10
2019-01-21T06:30:59.227Z,-19.15
2019-01-21T06:34:06.819Z,-19.20
2019-01-21T06:37:14.478Z,-19.28
2019-01-21T06:40:22.379Z,-19.26
2019-01-21T06:43:30.908Z,-19.32
2019-01-21T06:46:38.788Z,-19.38
2019-01-21T06:49:42.300Z,-19.43
2019-01-21T06:52:38.979Z,-19.45
2019-01-21T06:55:46.987Z,-19.46
2019-01-21T06:58:54.421Z,-19.49
2019-01-21T07:02:01.787Z,-19.52
2019-01-21T07:05:15.188Z,-19.54
2019-01-21T07:08:24.668Z,-19.55
2019-01-21T07:11:20.679Z,-19.56
2019-01-21T07:14:26.717Z,-19.53
2019-01-21T07:17:39.989Z,-19.50
2019-01-21T07:20:42.180Z,-19.52
2019-01-21T07:23:29.389Z,-19.54
2019-01-21T07:26:37.297Z,-19.58
2019-01-21T07:29:45.406Z,-19.57
2019-01-21T07:32:48.799Z,-19.56
2019-01-21T07:35:57.187Z,-19.53
2019-01-21T07:42:36.248Z,-19.58
2019-01-21T07:45:41.244Z,-19.57
2019-01-21T07:48:46.659Z,-19.58
2019-01-21T07:51:55.302Z,-19.59
2019-01-21T07:55:08.982Z,-19.61
2019-01-21T07:58:18.941Z,-19.60
2019-01-21T08:01:27.241Z,-19.55
2019-01-21T08:04:34.967Z,-19.61
2019-01-21T08:07:45.647Z,-19.57
2019-01-21T08:10:53.367Z,-19.55
2019-01-21T08:14:01.194Z,-19.52
2019-01-21T08:17:09.081Z,-19.50
2019-01-21T08:20:16.510Z,-19.47
2019-01-21T08:23:24.513Z,-19.45
2019-01-21T08:26:32.353Z,-19.42
2019-01-21T08:29:39.771Z,-19.36
2019-01-21T08:32:47.527Z,-19.34
2019-01-21T08:35:35.309Z,-19.35
2019-01-21T08:38:31.361Z,-19.32
2019-01-21T08:41:39.609Z,-19.27
2019-01-21T08:44:47.367Z,-19.13
2019-01-21T08:47:55.413Z,-21.09
2019-01-21T08:54:20.751Z,-19.02
2019-01-21T09:00:39.397Z,-19.03
2019-01-21T09:07:00.815Z,-19.00
2019-01-21T09:09:44.824Z,-19.01
2019-01-21T09:12:54.251Z,-19.01
2019-01-21T09:16:02.039Z,-18.94
2019-01-21T09:22:05.272Z,-18.88
2019-01-21T09:25:13.094Z,-18.87
2019-01-21T09:28:27.971Z,-18.88
2019-01-21T09:31:35.449Z,-18.82
2019-01-21T09:34:42.843Z,-18.73
2019-01-21T09:37:50.364Z,-18.69
2019-01-21T09:40:57.900Z,-18.60
2019-01-21T09:46:52.969Z,-18.48
2019-01-21T09:49:20.652Z,-18.33
2019-01-21T09:55:08.169Z,-18.14
2019-01-21T09:58:17.800Z,-18.02
2019-01-21T10:01:07.738Z,-17.94
2019-01-21T10:04:18.358Z,-17.81
2019-01-21T10:07:27.036Z,-17.77
2019-01-21T10:13:58.814Z,-17.58
2019-01-21T10:20:28.745Z,-17.32
2019-01-21T10:26:33.439Z,-17.21
2019-01-21T10:29:11.003Z,-17.26
2019-01-21T10:32:17.747Z,-17.25
2019-01-21T10:48:19.729Z,-17.27
2019-01-21T10:51:27.678Z,-17.20
2019-01-21T10:54:35.294Z,-17.14
2019-01-21T11:00:50.163Z,-17.08
2019-01-21T11:09:59.736Z,-16.98
2019-01-21T11:13:08.000Z,-16.93
2019-01-21T11:16:16.134Z,-16.90
2019-01-21T11:22:55.245Z,-17.56
2019-01-21T11:26:03.291Z,-16.81
2019-01-21T11:29:10.774Z,-16.79
2019-01-21T11:35:40.987Z,-16.71
2019-01-21T11:38:48.731Z,-16.64
2019-01-21T11:41:44.319Z,-16.59
2019-01-21T11:44:52.421Z,-16.56
2019-01-21T11:48:00.123Z,-16.52
2019-01-21T11:51:07.715Z,-16.47
2019-01-21T11:54:15.786Z,-16.41
2019-01-21T11:57:23.731Z,-16.33
2019-01-21T12:00:31.492Z,-16.29
2019-01-21T12:06:53.613Z,-16.11
2019-01-21T12:10:01.877Z,-15.98
2019-01-21T12:13:09.652Z,-15.71
2019-01-21T12:16:17.067Z,-15.38
2019-01-21T12:19:34.360Z,-15.08
2019-01-21T12:22:42.392Z,-14.75
2019-01-21T12:26:03.626Z,-14.39
2019-01-21T12:32:16.745Z,-14.11
2019-01-21T12:38:32.621Z,-13.93
2019-01-21T12:41:23.523Z,-13.95
2019-01-21T12:44:41.211Z,-13.97
2019-01-21T12:47:49.568Z,-13.93
2019-01-21T12:50:57.532Z,-13.98
2019-01-21T12:53:57.582Z,-14.10
2019-01-21T12:57:17.421Z,-14.10
2019-01-21T13:00:18.128Z,-14.14
2019-01-21T13:03:13.154Z,-14.33
2019-01-21T13:06:10.223Z,-14.64
2019-01-21T13:09:18.004Z,-14.82
2019-01-21T13:15:31.662Z,-15.18
2019-01-21T13:21:48.186Z,-15.48
2019-01-21T13:24:43.926Z,-15.54
2019-01-21T13:27:51.655Z,-15.70
2019-01-21T13:30:59.202Z,-15.80
2019-01-21T13:34:06.901Z,-15.92
2019-01-21T13:37:14.798Z,-16.04
2019-01-21T13:40:39.845Z,-16.13
2019-01-21T13:43:48.185Z,-16.18
2019-01-21T13:47:02.710Z,-16.26
2019-01-21T13:50:10.451Z,-16.32
2019-01-21T13:53:18.156Z,-16.37
2019-01-21T13:56:26.243Z,-16.43
2019-01-21T13:59:43.478Z,-16.47
2019-01-21T14:02:45.619Z,-16.50
2019-01-21T14:05:53.224Z,-16.57
2019-01-21T14:09:00.933Z,-16.59
2019-01-21T14:12:08.345Z,-16.60
2019-01-21T14:15:05.964Z,-16.62
2019-01-21T14:18:13.516Z,-16.64
2019-01-21T14:21:20.924Z,-16.66
2019-01-21T14:24:29.876Z,-16.71
2019-01-21T14:30:58.330Z,-16.78
2019-01-21T14:36:56.646Z,-16.75
2019-01-21T14:39:52.765Z,-16.79
2019-01-21T14:43:00.157Z,-16.77
2019-01-21T14:49:26.408Z,-16.76
2019-01-21T14:56:08.280Z,-16.77
2019-01-21T15:05:29.699Z,-16.79
2019-01-21T15:08:38.603Z,-16.79
2019-01-21T15:15:00.887Z,-16.85
2019-01-21T15:21:14.216Z,-16.84
2019-01-21T15:23:56.634Z,-16.79
2019-01-21T15:27:04.016Z,-16.78
2019-01-21T15:29:58.351Z,-16.79
2019-01-21T15:33:06.115Z,-16.81
2019-01-21T15:36:14.198Z,-16.80
2019-01-21T15:39:27.441Z,-16.79
2019-01-21T15:42:36.027Z,-16.74
2019-01-21T15:45:43.927Z,-16.78
2019-01-21T15:48:52.126Z,-16.80
2019-01-21T15:52:07.472Z,-16.83
2019-01-21T15:55:00.087Z,-16.83
2019-01-21T15:57:46.993Z,-16.84
2019-01-21T16:01:09.811Z,-16.85
2019-01-21T16:04:03.136Z,-16.86
2019-01-21T16:06:44.342Z,-16.88
2019-01-21T16:10:03.820Z,-16.89
2019-01-21T16:13:16.518Z,-16.93
2019-01-21T16:16:24.430Z,-16.95
2019-01-21T16:22:35.731Z,-16.88
2019-01-21T16:29:00.366Z,-16.90
2019-01-21T16:31:51.191Z,-16.92
2019-01-21T16:34:57.897Z,-16.91
2019-01-21T16:38:05.356Z,-16.96
2019-01-21T16:41:14.605Z,-16.97
2019-01-21T16:43:44.420Z,-16.98
2019-01-21T16:46:14.219Z,-16.99
2019-01-21T16:48:43.832Z,-17.00
2019-01-21T16:51:20.207Z,-17.00
2019-01-21T16:53:45.961Z,-16.99
2019-01-21T16:56:54.765Z,-16.97
2019-01-21T17:02:06.537Z,-16.93
2019-01-21T17:05:15.403Z,-16.94
2019-01-21T17:10:41.483Z,-16.89
2019-01-21T17:13:11.040Z,-16.89
2019-01-21T17:16:38.175Z,-17.77
2019-01-21T17:22:10.354Z,-16.88
2019-01-21T17:27:32.463Z,-16.90
2019-01-21T17:30:02.066Z,-16.87
2019-01-21T17:32:51.436Z,-16.90
2019-01-21T17:38:10.023Z,-16.80
2019-01-21T17:40:39.818Z,-16.80
2019-01-21T17:43:11.234Z,-16.79
2019-01-21T17:45:43.496Z,-16.76
2019-01-21T17:48:13.728Z,-16.74
2019-01-21T17:50:45.258Z,-16.75
2019-01-21T17:56:11.424Z,-16.78
2019-01-21T17:58:42.256Z,-16.79
2019-01-21T18:04:14.801Z,-16.81
2019-01-21T18:06:44.965Z,-16.82
2019-01-21T18:09:18.549Z,-16.82
2019-01-21T18:11:49.451Z,-16.83
2019-01-21T18:17:24.011Z,-16.83
2019-01-21T18:19:53.738Z,-16.84
2019-01-21T18:22:23.952Z,-16.86
2019-01-21T18:25:33.721Z,-16.89
2019-01-21T18:28:04.315Z,-16.88
2019-01-21T18:30:36.670Z,-16.85
2019-01-21T18:33:07.156Z,-16.82
2019-01-21T18:44:10.413Z,-16.90
2019-01-21T18:46:40.209Z,-16.93
2019-01-21T18:49:34.003Z,-16.95
2019-01-21T18:52:03.576Z,-16.97
2019-01-21T18:54:34.491Z,-17.00
2019-01-21T18:57:45.422Z,-17.01
2019-01-21T19:06:34.301Z,-17.00
2019-01-21T19:15:29.990Z,-17.01
2019-01-21T19:18:19.437Z,-17.01
2019-01-21T19:21:01.489Z,-17.03
2019-01-21T19:27:00.607Z,-17.00
2019-01-21T19:29:31.528Z,-16.99
2019-01-21T19:32:07.492Z,-16.99
2019-01-21T19:37:41.833Z,-16.99
2019-01-21T19:40:52.740Z,-16.97
2019-01-21T19:44:02.415Z,-16.96
2019-01-21T19:49:57.909Z,-16.87
2019-01-21T19:52:28.130Z,-16.81
2019-01-21T19:54:57.669Z,-16.79
2019-01-21T19:57:29.037Z,-16.77
2019-01-21T19:59:59.764Z,-16.75
2019-01-21T20:02:30.004Z,-16.73
2019-01-21T20:05:39.554Z,-16.66
2019-01-21T20:11:12.502Z,-20.26
2019-01-21T20:14:21.483Z,-16.58
2019-01-21T20:16:51.481Z,-16.57
2019-01-21T20:19:21.770Z,-16.57
2019-01-21T20:21:51.723Z,-16.55
2019-01-21T20:24:22.177Z,-16.55
2019-01-21T20:26:51.890Z,-16.53
2019-01-21T20:29:21.668Z,-16.50
2019-01-21T20:31:51.990Z,-16.47
2019-01-21T20:34:22.350Z,-16.43
2019-01-21T20:36:51.937Z,-16.38
2019-01-21T20:39:21.570Z,-16.40
2019-01-21T20:41:51.871Z,-16.36
2019-01-21T20:44:22.069Z,-16.35
2019-01-21T20:46:54.254Z,-16.30
2019-01-21T20:49:24.422Z,-16.26
2019-01-21T20:52:14.276Z,-16.26
2019-01-21T20:54:45.600Z,-16.25
2019-01-21T20:57:15.440Z,-16.28
2019-01-21T20:59:45.250Z,-16.26
2019-01-21T21:02:15.634Z,-16.26
2019-01-21T21:04:47.939Z,-16.28
2019-01-21T21:07:18.348Z,-16.26
2019-01-21T21:09:48.039Z,-16.26
2019-01-21T21:12:18.316Z,-16.28
2019-01-21T21:14:49.149Z,-16.31
2019-01-21T21:17:19.547Z,-16.32
2019-01-21T21:19:49.268Z,-16.34
2019-01-21T21:22:21.067Z,-16.34
2019-01-21T21:24:56.055Z,-16.32
2019-01-21T21:27:27.373Z,-16.34
2019-01-21T21:29:56.999Z,-16.35
2019-01-21T21:32:27.069Z,-16.37
2019-01-21T21:37:52.675Z,-16.39
2019-01-21T21:40:26.511Z,-16.39
2019-01-21T21:42:56.032Z,-16.43
2019-01-21T21:45:26.142Z,-16.46
2019-01-21T21:48:01.088Z,-16.45
2019-01-21T21:50:31.599Z,-16.43
2019-01-21T21:53:01.644Z,-16.42
2019-01-21T21:55:31.729Z,-16.43
2019-01-21T21:58:02.207Z,-16.44
2019-01-21T22:00:32.599Z,-16.40
2019-01-21T22:03:02.214Z,-16.38
2019-01-21T22:05:31.833Z,-16.35
2019-01-21T22:08:02.155Z,-16.31
2019-01-21T22:10:33.538Z,-16.32
2019-01-21T22:13:03.268Z,-16.31
2019-01-21T22:15:33.228Z,-16.30
2019-01-21T22:18:03.375Z,-16.30
2019-01-21T22:20:33.098Z,-16.26
2019-01-21T22:26:19.586Z,-16.26
2019-01-21T22:28:50.058Z,-16.27
2019-01-21T22:31:19.553Z,-16.31
2019-01-21T22:33:49.364Z,-16.31
2019-01-21T22:36:21.418Z,-16.33
2019-01-21T22:38:50.859Z,-16.36
2019-01-21T22:41:20.337Z,-16.40
2019-01-21T22:43:51.581Z,-16.42
2019-01-21T22:46:21.758Z,-17.31
2019-01-21T22:48:51.247Z,-16.44
2019-01-21T22:51:20.960Z,-16.44
2019-01-21T22:53:51.288Z,-16.47
2019-01-21T22:56:21.542Z,-16.49
2019-01-21T22:58:51.744Z,-16.50
2019-01-21T23:01:30.906Z,-16.52
2019-01-21T23:04:02.677Z,-16.54
2019-01-21T23:06:32.739Z,-16.56
2019-01-21T23:12:17.222Z,-16.64
2019-01-21T23:15:26.042Z,-16.66
2019-01-21T23:18:35.191Z,-16.68
2019-01-21T23:26:52.362Z,-16.71
2019-01-21T23:30:02.094Z,-16.75
2019-01-21T23:33:11.093Z,-16.79
2019-01-21T23:41:57.265Z,-16.86
2019-01-21T23:44:26.780Z,-16.89
2019-01-21T23:47:35.619Z,-16.94
2019-01-21T23:50:06.848Z,-16.90
2019-01-21T23:52:36.418Z,-16.91
2019-01-21T23:55:45.856Z,-16.94
